createdAt,value
2018-03-01T00:00:19.025Z,26.37
2018-03-01T00:02:47.589Z,21.50
2018-03-01T00:05:16.214Z,15.83
2018-03-01T00:07:45.593Z,21.90
2018-03-01T00:10:14.161Z,20.20
2018-03-01T00:12:42.840Z,18.20
2018-03-01T00:15:11.624Z,18.30
2018-03-01T00:17:40.180Z,20.83
2018-03-01T00:20:08.743Z,18.70
2018-03-01T00:22:38.163Z,27.63
2018-03-01T00:25:06.727Z,26.70
2018-03-01T00:27:36.053Z,24.30
2018-03-01T00:30:04.821Z,25.10
2018-03-01T00:32:33.385Z,12.30
2018-03-01T00:35:02.717Z,28.07
2018-03-01T00:37:31.319Z,31.47
2018-03-01T00:39:59.873Z,29.10
2018-03-01T00:42:28.436Z,20.07
2018-03-01T00:44:57.933Z,25.43
2018-03-01T00:47:26.492Z,19.23
2018-03-01T00:49:55.057Z,18.30
2018-03-01T00:52:23.656Z,24.23
2018-03-01T00:54:52.217Z,22.33
2018-03-01T00:57:20.776Z,28.57
2018-03-01T00:59:49.600Z,20.17
2018-03-01T01:02:18.157Z,18.47
2018-03-01T01:04:46.716Z,18.13
2018-03-01T01:07:16.085Z,16.00
2018-03-01T01:09:44.652Z,14.10
2018-03-01T01:12:13.209Z,9.20
2018-03-01T01:14:41.828Z,15.90
2018-03-01T01:17:10.388Z,17.57
2018-03-01T01:19:38.952Z,16.03
2018-03-01T01:22:07.579Z,16.13
2018-03-01T01:24:36.136Z,12.37
2018-03-01T01:27:04.698Z,13.63
2018-03-01T01:29:34.068Z,18.20
2018-03-01T01:32:02.632Z,13.07
2018-03-01T01:34:31.179Z,13.40
2018-03-01T01:36:59.999Z,16.27
2018-03-01T01:39:28.564Z,23.87
2018-03-01T01:41:58.151Z,12.30
2018-03-01T01:44:26.801Z,13.27
2018-03-01T01:46:55.373Z,14.70
2018-03-01T01:49:23.943Z,18.43
2018-03-01T01:51:52.838Z,15.37
2018-03-01T01:54:21.403Z,17.53
2018-03-01T01:56:49.964Z,21.97
2018-03-01T01:59:18.579Z,13.63
2018-03-01T02:01:47.140Z,19.17
2018-03-01T02:04:15.696Z,19.50
2018-03-01T02:06:45.353Z,19.50
2018-03-01T02:09:13.916Z,15.23
2018-03-01T02:11:42.487Z,15.50
2018-03-01T02:14:11.318Z,14.07
2018-03-01T02:16:39.894Z,16.23
2018-03-01T02:19:08.460Z,17.90
2018-03-01T02:21:37.576Z,19.40
2018-03-01T02:24:06.137Z,16.40
2018-03-01T02:26:34.697Z,14.60
2018-03-01T02:29:03.305Z,8.13
2018-03-01T02:31:31.871Z,17.87
2018-03-01T02:34:00.437Z,12.67
2018-03-01T02:36:34.914Z,8.37
2018-03-01T02:39:03.536Z,16.70
2018-03-01T02:41:32.869Z,19.60
2018-03-01T02:44:01.493Z,23.13
2018-03-01T02:46:30.373Z,9.57
2018-03-01T02:48:58.937Z,14.10
2018-03-01T02:51:27.645Z,15.10
2018-03-01T02:53:56.209Z,16.37
2018-03-01T02:56:24.777Z,13.67
2018-03-01T02:58:53.599Z,17.03
2018-03-01T03:01:22.181Z,15.90
2018-03-01T03:03:50.741Z,16.23
2018-03-01T03:06:19.352Z,11.07
2018-03-01T03:08:47.921Z,16.90
2018-03-01T03:11:16.476Z,10.63
2018-03-01T03:13:45.089Z,15.33
2018-03-01T03:16:13.665Z,12.63
2018-03-01T03:18:42.244Z,14.00
2018-03-01T03:21:10.925Z,16.33
2018-03-01T03:23:39.484Z,14.03
2018-03-01T03:26:08.816Z,18.43
2018-03-01T03:28:37.432Z,18.20
2018-03-01T03:31:06.010Z,18.33
2018-03-01T03:33:34.581Z,20.77
2018-03-01T03:36:03.193Z,22.40
2018-03-01T03:38:31.761Z,20.07
2018-03-01T03:41:00.335Z,20.27
2018-03-01T03:43:29.046Z,19.60
2018-03-01T03:45:57.613Z,21.20
2018-03-01T03:48:26.181Z,25.03
2018-03-01T03:50:54.970Z,21.87
2018-03-01T03:53:23.540Z,18.73
2018-03-01T03:55:52.104Z,18.57
2018-03-01T03:58:20.732Z,19.57
2018-03-01T04:00:49.296Z,19.17
2018-03-01T04:03:17.856Z,18.67
2018-03-01T04:05:46.478Z,22.37
2018-03-01T04:08:15.040Z,18.17
2018-03-01T04:10:43.605Z,15.93
2018-03-01T04:13:12.542Z,15.90
2018-03-01T04:15:41.117Z,15.20
2018-03-01T04:18:10.451Z,16.37
2018-03-01T04:20:39.213Z,25.07
2018-03-01T04:23:07.792Z,15.40
2018-03-01T04:25:36.407Z,17.67
2018-03-01T04:28:05.021Z,16.50
2018-03-01T04:30:33.593Z,69.03
2018-03-01T04:33:02.169Z,154.63
2018-03-01T04:35:30.785Z,50.13
2018-03-01T04:37:59.360Z,27.50
2018-03-01T04:40:27.932Z,38.93
2018-03-01T04:42:56.610Z,32.37
2018-03-01T04:45:25.047Z,32.77
2018-03-01T04:47:54.255Z,32.50
2018-03-01T04:50:23.601Z,26.90
2018-03-01T04:52:52.054Z,25.50
2018-03-01T04:55:20.493Z,22.63
2018-03-01T04:57:48.970Z,20.63
2018-03-01T05:00:17.407Z,23.47
2018-03-01T05:02:45.845Z,16.93
2018-03-01T05:05:14.799Z,20.83
2018-03-01T05:07:43.368Z,24.47
2018-03-01T05:10:11.928Z,22.13
2018-03-01T05:12:40.549Z,25.03
2018-03-01T05:15:09.116Z,25.23
2018-03-01T05:17:37.681Z,25.63
2018-03-01T05:20:06.403Z,35.50
2018-03-01T05:22:34.974Z,30.23
2018-03-01T05:25:03.540Z,25.57
2018-03-01T05:27:32.328Z,18.67
2018-03-01T05:30:02.277Z,16.73
2018-03-01T05:32:31.370Z,18.33
2018-03-01T05:34:59.984Z,20.80
2018-03-01T05:37:31.240Z,12.57
2018-03-01T05:40:01.089Z,12.37
2018-03-01T05:42:29.653Z,8.60
2018-03-01T05:44:59.307Z,8.23
2018-03-01T05:47:28.881Z,9.48
2018-03-01T05:49:58.625Z,10.00
2018-03-01T05:52:27.264Z,11.40
2018-03-01T05:54:56.089Z,12.77
2018-03-01T05:57:24.652Z,10.67
2018-03-01T05:59:53.223Z,12.20
2018-03-01T06:02:22.004Z,9.87
2018-03-01T06:04:50.566Z,11.80
2018-03-01T06:07:19.132Z,12.73
2018-03-01T06:09:47.741Z,13.37
2018-03-01T06:12:17.072Z,15.03
2018-03-01T06:14:45.632Z,17.93
2018-03-01T06:17:15.116Z,20.37
2018-03-01T06:19:43.676Z,16.43
2018-03-01T06:22:12.258Z,13.27
2018-03-01T06:24:40.970Z,14.57
2018-03-01T06:27:10.341Z,17.40
2018-03-01T06:29:38.904Z,16.93
2018-03-01T06:34:43.166Z,15.77
2018-03-01T06:37:12.633Z,14.20
2018-03-01T06:39:41.201Z,14.23
2018-03-01T06:42:09.764Z,14.80
2018-03-01T06:44:39.651Z,15.07
2018-03-01T06:47:08.337Z,16.23
2018-03-01T06:49:37.022Z,17.23
2018-03-01T06:52:05.905Z,17.20
2018-03-01T06:54:34.540Z,19.47
2018-03-01T06:57:03.278Z,17.33
2018-03-01T06:59:32.076Z,23.33
2018-03-01T07:02:01.541Z,23.30
2018-03-01T07:04:30.510Z,24.87
2018-03-01T07:06:59.218Z,23.23
2018-03-01T07:09:27.871Z,21.70
2018-03-01T07:11:56.735Z,21.10
2018-03-01T07:14:26.200Z,21.23
2018-03-01T07:16:54.808Z,26.53
2018-03-01T07:19:24.566Z,35.40
2018-03-01T07:21:53.275Z,24.93
2018-03-01T07:24:21.832Z,23.67
2018-03-01T07:26:50.793Z,25.23
2018-03-01T07:29:20.254Z,28.60
2018-03-01T07:31:48.840Z,28.33
2018-03-01T07:34:17.897Z,29.97
2018-03-01T07:36:46.564Z,31.90
2018-03-01T07:39:16.029Z,40.07
2018-03-01T07:41:45.200Z,35.57
2018-03-01T07:44:13.905Z,35.40
2018-03-01T07:46:42.597Z,38.10
2018-03-01T07:49:11.324Z,34.50
2018-03-01T07:51:40.786Z,29.33
2018-03-01T07:54:09.413Z,31.37
2018-03-01T07:56:38.877Z,27.50
2018-03-01T07:59:07.560Z,21.13
2018-03-01T08:01:36.190Z,17.57
2018-03-01T08:04:06.009Z,18.53
2018-03-01T08:06:34.745Z,19.63
2018-03-01T08:09:03.443Z,17.00
2018-03-01T08:11:33.709Z,18.03
2018-03-01T08:14:02.337Z,16.90
2018-03-01T08:16:30.924Z,16.90
2018-03-01T08:18:59.611Z,18.83
2018-03-01T08:21:28.296Z,18.60
2018-03-01T08:23:56.919Z,19.00
2018-03-01T08:26:27.369Z,20.23
2018-03-01T08:28:56.087Z,23.33
2018-03-01T08:31:24.776Z,22.33
2018-03-01T08:33:53.767Z,19.93
2018-03-01T08:36:22.411Z,18.47
2018-03-01T08:38:51.139Z,19.77
2018-03-01T08:41:19.934Z,20.33
2018-03-01T08:43:48.513Z,19.73
2018-03-01T08:46:17.096Z,20.37
2018-03-01T08:48:45.834Z,19.87
2018-03-01T08:51:14.517Z,19.07
2018-03-01T08:53:43.976Z,18.80
2018-03-01T08:56:12.659Z,20.03
2018-03-01T08:58:41.349Z,20.20
2018-03-01T09:01:10.035Z,20.27
2018-03-01T09:03:38.919Z,21.13
2018-03-01T09:06:07.605Z,25.57
2018-03-01T09:08:36.240Z,25.20
2018-03-01T09:11:05.860Z,24.67
2018-03-01T09:13:34.584Z,24.40
2018-03-01T09:16:03.271Z,24.47
2018-03-01T09:18:32.068Z,27.77
2018-03-01T09:21:00.750Z,27.83
2018-03-01T09:23:29.391Z,28.43
2018-03-01T09:25:58.320Z,26.33
2018-03-01T09:28:26.955Z,24.90
2018-03-01T09:30:56.422Z,22.97
2018-03-01T09:33:25.189Z,20.70
2018-03-01T09:35:53.887Z,23.37
2018-03-01T09:38:22.527Z,25.47
2018-03-01T09:40:51.873Z,24.60
2018-03-01T09:43:20.510Z,24.27
2018-03-01T09:45:49.956Z,25.03
2018-03-01T09:48:18.951Z,26.40
2018-03-01T09:50:47.588Z,27.03
2018-03-01T09:53:17.046Z,27.03
2018-03-01T09:55:45.832Z,23.77
2018-03-01T09:58:14.518Z,25.90
2018-03-01T10:00:43.302Z,28.67
2018-03-01T10:03:12.126Z,25.47
2018-03-01T10:05:41.496Z,27.80
2018-03-01T10:08:11.783Z,28.90
2018-03-01T10:10:40.432Z,26.73
2018-03-01T10:13:09.158Z,26.60
2018-03-01T10:15:37.950Z,26.90
2018-03-01T10:18:06.636Z,27.87
2018-03-01T10:20:35.321Z,28.57
2018-03-01T10:23:04.107Z,29.63
2018-03-01T10:25:32.793Z,28.17
2018-03-01T10:28:02.303Z,29.00
2018-03-01T10:30:31.185Z,28.80
2018-03-01T10:32:59.876Z,27.33
2018-03-01T10:35:28.556Z,31.80
2018-03-01T10:37:57.451Z,29.27
2018-03-01T10:40:26.138Z,29.63
2018-03-01T10:42:54.824Z,28.00
2018-03-01T10:45:23.696Z,26.83
2018-03-01T10:47:52.339Z,29.10
2018-03-01T10:50:21.803Z,28.20
2018-03-01T10:52:50.752Z,27.50
2018-03-01T10:55:19.481Z,26.67
2018-03-01T10:57:48.934Z,25.60
2018-03-01T11:03:21.789Z,25.93
2018-03-01T11:05:50.781Z,25.77
2018-03-01T11:08:19.468Z,25.57
2018-03-01T11:10:48.054Z,23.93
2018-03-01T11:13:17.027Z,26.33
2018-03-01T11:15:47.240Z,23.37
2018-03-01T11:18:15.915Z,22.37
2018-03-01T11:20:44.612Z,25.93
2018-03-01T11:23:13.396Z,24.13
2018-03-01T11:25:42.071Z,25.03
2018-03-01T11:28:11.015Z,24.80
2018-03-01T11:30:40.474Z,24.53
2018-03-01T11:33:09.159Z,24.27
2018-03-01T11:35:38.054Z,23.80
2018-03-01T11:38:06.640Z,26.97
2018-03-01T11:40:35.217Z,29.47
2018-03-01T11:43:03.968Z,28.90
2018-03-01T11:45:32.635Z,34.43
2018-03-01T11:48:02.098Z,32.37
2018-03-01T11:50:30.882Z,31.33
2018-03-01T11:52:59.570Z,27.67
2018-03-01T11:55:28.153Z,28.23
2018-03-01T11:57:56.853Z,27.40
2018-03-01T12:00:25.545Z,28.53
2018-03-01T12:02:54.246Z,26.97
2018-03-01T12:05:23.081Z,26.90
2018-03-01T12:07:51.716Z,25.97
2018-03-01T12:10:20.297Z,26.37
2018-03-01T12:12:49.458Z,26.83
2018-03-01T12:15:18.126Z,25.83
2018-03-01T12:17:47.592Z,25.43
2018-03-01T12:20:16.378Z,25.97
2018-03-01T12:22:45.061Z,25.43
2018-03-01T12:25:13.748Z,24.03
2018-03-01T12:27:42.436Z,25.90
2018-03-01T12:30:11.107Z,23.10
2018-03-01T12:32:39.804Z,23.63
2018-03-01T12:35:08.491Z,23.17
2018-03-01T12:37:37.915Z,24.30
2018-03-01T12:40:07.248Z,24.07
2018-03-01T12:42:35.944Z,29.90
2018-03-01T12:45:04.626Z,24.33
2018-03-01T12:47:33.312Z,22.67
2018-03-01T12:50:02.004Z,25.53
2018-03-01T12:52:30.739Z,23.20
2018-03-01T12:55:00.193Z,23.30
2018-03-01T12:57:28.877Z,24.00
2018-03-01T12:59:57.621Z,24.67
2018-03-01T13:02:26.348Z,24.60
2018-03-01T13:04:55.961Z,28.17
2018-03-01T13:07:24.542Z,27.87
2018-03-01T13:09:53.244Z,25.10
2018-03-01T13:12:21.919Z,22.60
2018-03-01T13:14:50.600Z,31.20
2018-03-01T13:17:19.345Z,27.73
2018-03-01T13:19:48.538Z,25.70
2018-03-01T13:22:17.985Z,29.07
2018-03-01T13:24:46.673Z,40.77
2018-03-01T13:27:15.413Z,54.17
2018-03-01T13:29:44.910Z,30.97
2018-03-01T13:32:14.474Z,30.47
2018-03-01T13:34:47.530Z,23.87
2018-03-01T13:37:16.244Z,29.13
2018-03-01T13:39:44.977Z,40.20
2018-03-01T13:42:18.499Z,30.93
2018-03-01T13:44:47.241Z,31.13
2018-03-01T13:47:15.866Z,25.93
2018-03-01T13:49:44.650Z,30.80
2018-03-01T13:52:13.445Z,42.97
2018-03-01T13:54:42.230Z,27.90
2018-03-01T13:57:11.061Z,25.90
2018-03-01T13:59:40.425Z,25.20
2018-03-01T14:02:09.212Z,55.83
2018-03-01T14:04:38.300Z,27.33
2018-03-01T14:07:12.472Z,35.40
2018-03-01T14:09:41.216Z,34.10
2018-03-01T14:12:20.587Z,69.20
2018-03-01T14:14:50.055Z,27.03
2018-03-01T14:17:20.887Z,20.43
2018-03-01T14:20:01.554Z,23.23
2018-03-01T14:22:35.710Z,22.23
2018-03-01T14:25:06.604Z,25.30
2018-03-01T14:27:36.943Z,30.93
2018-03-01T14:30:12.161Z,30.93
2018-03-01T14:32:40.828Z,33.70
2018-03-01T14:35:09.549Z,25.40
2018-03-01T14:37:38.266Z,31.73
2018-03-01T14:40:07.601Z,41.83
2018-03-01T14:42:36.270Z,410.80
2018-03-01T14:45:05.025Z,81.87
2018-03-01T14:47:33.748Z,47.97
2018-03-01T14:50:02.427Z,48.23
2018-03-01T14:52:31.221Z,52.27
2018-03-01T14:54:59.888Z,47.87
2018-03-01T14:57:29.352Z,37.10
2018-03-01T14:59:58.423Z,33.67
2018-03-01T15:02:27.129Z,30.03
2018-03-01T15:04:55.815Z,31.93
2018-03-01T15:07:24.425Z,27.83
2018-03-01T15:09:53.186Z,43.13
2018-03-01T15:12:21.861Z,36.17
2018-03-01T15:14:50.656Z,53.37
2018-03-01T15:17:19.296Z,44.67
2018-03-01T15:19:48.028Z,33.47
2018-03-01T15:22:16.824Z,43.33
2018-03-01T15:24:45.510Z,42.23
2018-03-01T15:27:14.197Z,46.33
2018-03-01T15:29:43.037Z,53.40
2018-03-01T15:32:11.765Z,49.87
2018-03-01T15:34:40.421Z,78.73
2018-03-01T15:37:09.246Z,49.90
2018-03-01T15:39:37.879Z,38.93
2018-03-01T15:42:07.327Z,48.27
2018-03-01T15:44:36.067Z,49.77
2018-03-01T15:47:04.802Z,57.50
2018-03-01T15:49:33.452Z,55.43
2018-03-01T15:52:02.444Z,72.53
2018-03-01T15:54:31.167Z,83.03
2018-03-01T15:56:59.805Z,52.50
2018-03-01T15:59:28.498Z,46.67
2018-03-01T16:01:57.225Z,48.37
2018-03-01T16:04:25.930Z,54.73
2018-03-01T16:06:55.513Z,51.20
2018-03-01T16:09:24.167Z,44.43
2018-03-01T16:11:52.894Z,54.17
2018-03-01T16:14:21.887Z,52.27
2018-03-01T16:16:50.573Z,50.73
2018-03-01T16:19:19.259Z,60.30
2018-03-01T16:21:47.945Z,56.40
2018-03-01T16:24:16.624Z,58.97
2018-03-01T16:26:45.317Z,67.97
2018-03-01T16:29:14.100Z,68.50
2018-03-01T16:31:42.688Z,53.00
2018-03-01T16:34:11.369Z,61.40
2018-03-01T16:36:41.126Z,61.50
2018-03-01T16:39:09.754Z,65.50
2018-03-01T16:41:39.171Z,63.67
2018-03-01T16:44:07.896Z,56.73
2018-03-01T16:46:36.599Z,68.37
2018-03-01T16:49:05.372Z,103.00
2018-03-01T16:51:34.236Z,93.53
2018-03-01T16:54:02.935Z,72.43
2018-03-01T16:56:33.077Z,54.53
2018-03-01T16:59:01.874Z,49.10
2018-03-01T17:01:30.431Z,49.50
2018-03-01T17:03:59.896Z,101.00
2018-03-01T17:06:28.691Z,71.53
2018-03-01T17:08:57.361Z,85.13
2018-03-01T17:11:26.004Z,75.47
2018-03-01T17:13:55.476Z,79.70
2018-03-01T17:16:24.148Z,76.03
2018-03-01T17:18:52.834Z,78.80
2018-03-01T17:21:21.725Z,64.67
2018-03-01T17:23:50.413Z,69.00
2018-03-01T17:26:18.994Z,98.33
2018-03-01T17:28:47.889Z,70.97
2018-03-01T17:31:17.326Z,109.70
2018-03-01T17:33:46.014Z,105.80
2018-03-01T17:36:14.834Z,106.33
2018-03-01T17:38:44.297Z,98.37
2018-03-01T17:41:12.993Z,91.40
2018-03-01T17:43:41.877Z,104.90
2018-03-01T17:46:10.563Z,114.27
2018-03-01T17:48:39.199Z,94.57
2018-03-01T17:51:08.814Z,126.33
2018-03-01T17:53:37.509Z,95.87
2018-03-01T17:56:06.097Z,89.77
2018-03-01T17:58:34.777Z,73.00
2018-03-01T18:01:03.341Z,67.17
2018-03-01T18:03:32.002Z,60.30
2018-03-01T18:06:00.731Z,59.80
2018-03-01T18:08:29.284Z,51.97
2018-03-01T18:10:58.004Z,55.90
2018-03-01T18:13:26.997Z,59.00
2018-03-01T18:15:55.577Z,67.83
2018-03-01T18:18:24.269Z,75.33
2018-03-01T18:20:53.213Z,68.60
2018-03-01T18:23:21.950Z,73.13
2018-03-01T18:25:50.525Z,59.40
2018-03-01T18:28:19.600Z,58.57
2018-03-01T18:30:48.313Z,63.77
2018-03-01T18:33:16.895Z,64.23
2018-03-01T18:35:45.628Z,71.47
2018-03-01T18:38:14.949Z,71.47
2018-03-01T18:40:43.614Z,77.50
2018-03-01T18:43:18.885Z,74.57
2018-03-01T18:45:47.593Z,79.67
2018-03-01T18:48:16.277Z,72.90
2018-03-01T18:50:45.109Z,68.93
2018-03-01T18:53:14.580Z,76.10
2018-03-01T18:55:43.273Z,84.20
2018-03-01T18:58:11.998Z,78.17
2018-03-01T19:00:40.729Z,83.97
2018-03-01T19:03:09.414Z,78.57
2018-03-01T19:05:38.209Z,88.80
2018-03-01T19:08:06.834Z,77.53
2018-03-01T19:10:36.295Z,79.67
2018-03-01T19:13:05.188Z,90.27
2018-03-01T19:15:33.747Z,84.33
2018-03-01T19:18:02.451Z,154.50
2018-03-01T19:20:31.246Z,143.93
2018-03-01T19:22:59.889Z,122.87
2018-03-01T19:25:28.617Z,68.60
2018-03-01T19:27:57.809Z,48.27
2018-03-01T19:30:26.498Z,53.67
2018-03-01T19:32:55.084Z,51.10
2018-03-01T19:35:23.866Z,51.37
2018-03-01T19:37:52.499Z,56.63
2018-03-01T19:40:21.961Z,56.13
2018-03-01T19:42:50.648Z,52.77
2018-03-01T19:45:19.224Z,41.70
2018-03-01T19:47:47.910Z,43.13
2018-03-01T19:50:16.705Z,47.23
2018-03-01T19:52:45.285Z,52.07
2018-03-01T19:55:13.968Z,49.53
2018-03-01T19:57:42.941Z,48.87
2018-03-01T20:00:11.650Z,49.20
2018-03-01T20:02:40.336Z,47.80
2018-03-01T20:05:09.127Z,50.03
2018-03-01T20:07:37.813Z,48.33
2018-03-01T20:10:06.451Z,49.00
2018-03-01T20:12:36.001Z,48.10
2018-03-01T20:15:04.802Z,44.87
2018-03-01T20:17:34.257Z,47.30
2018-03-01T20:20:03.346Z,48.77
2018-03-01T20:22:32.081Z,49.90
2018-03-01T20:25:00.764Z,48.33
2018-03-01T20:27:29.649Z,46.33
2018-03-01T20:29:58.386Z,46.33
2018-03-01T20:32:27.843Z,44.13
2018-03-01T20:34:56.580Z,47.13
2018-03-01T20:37:26.199Z,48.13
2018-03-01T20:39:54.735Z,51.23
2018-03-01T20:42:23.509Z,52.03
2018-03-01T20:44:52.296Z,50.57
2018-03-01T20:47:21.848Z,53.37
2018-03-01T20:49:51.301Z,56.93
2018-03-01T20:52:20.006Z,49.77
2018-03-01T20:54:48.570Z,47.87
2018-03-01T20:57:17.361Z,46.10
2018-03-01T20:59:46.064Z,47.30
2018-03-01T21:02:14.839Z,50.37
2018-03-01T21:04:43.989Z,48.20
2018-03-01T21:07:13.302Z,54.07
2018-03-01T21:09:42.025Z,62.13
2018-03-01T21:12:11.117Z,66.63
2018-03-01T21:14:39.806Z,55.73
2018-03-01T21:17:08.431Z,52.80
2018-03-01T21:19:38.174Z,51.40
2018-03-01T21:22:06.882Z,54.27
2018-03-01T21:24:35.468Z,39.93
2018-03-01T21:27:04.254Z,41.07
2018-03-01T21:29:32.940Z,47.13
2018-03-01T21:32:01.587Z,47.90
2018-03-01T21:34:30.269Z,50.63
2018-03-01T21:36:59.820Z,48.30
2018-03-01T21:39:28.412Z,45.23
2018-03-01T21:41:57.185Z,46.20
2018-03-01T21:44:25.975Z,49.07
2018-03-01T21:47:08.694Z,86.70
2018-03-01T21:49:37.480Z,81.87
2018-03-01T21:52:06.274Z,72.27
2018-03-01T21:54:35.367Z,68.10
2018-03-01T21:57:03.989Z,77.43
2018-03-01T21:59:33.452Z,74.73
2018-03-01T22:02:02.138Z,77.57
2018-03-01T22:04:30.823Z,74.00
2018-03-01T22:06:59.459Z,68.73
2018-03-01T22:09:28.404Z,73.00
2018-03-01T22:11:56.993Z,67.37
2018-03-01T22:14:25.556Z,68.53
2018-03-01T22:16:54.504Z,63.67
2018-03-01T22:19:23.919Z,71.63
2018-03-01T22:21:53.368Z,71.60
2018-03-01T22:24:22.262Z,71.27
2018-03-01T22:26:51.147Z,69.77
2018-03-01T22:29:19.793Z,66.37
2018-03-01T22:31:48.785Z,70.93
2018-03-01T22:34:17.510Z,61.30
2018-03-01T22:36:46.146Z,62.23
2018-03-01T22:39:15.688Z,75.10
2018-03-01T22:41:44.392Z,92.17
2018-03-01T22:44:13.082Z,68.77
2018-03-01T22:46:41.763Z,63.53
2018-03-01T22:49:10.453Z,62.83
2018-03-01T22:51:39.019Z,60.53
2018-03-01T22:54:07.769Z,64.17
2018-03-01T22:56:37.330Z,60.70
2018-03-01T22:59:05.899Z,59.50
2018-03-01T23:01:34.801Z,64.50
2018-03-01T23:04:03.567Z,69.80
2018-03-01T23:06:32.269Z,70.17
2018-03-01T23:09:00.975Z,142.30
2018-03-01T23:11:29.709Z,72.80
2018-03-01T23:13:58.363Z,54.00
2018-03-01T23:16:27.174Z,55.93
2018-03-01T23:18:55.875Z,54.17
2018-03-01T23:21:24.453Z,51.77
2018-03-01T23:23:53.202Z,57.30
2018-03-01T23:26:21.933Z,55.30
2018-03-01T23:28:50.619Z,56.80
2018-03-01T23:31:19.659Z,60.30
2018-03-01T23:33:49.110Z,63.27
2018-03-01T23:36:17.797Z,66.83
2018-03-01T23:38:46.648Z,74.53
2018-03-01T23:41:15.994Z,74.97
2018-03-01T23:43:45.547Z,66.90
2018-03-01T23:46:15.106Z,70.87
2018-03-01T23:48:43.728Z,69.77
2018-03-01T23:51:13.192Z,74.90
2018-03-01T23:53:42.185Z,80.73
2018-03-01T23:56:11.079Z,92.07
2018-03-01T23:58:39.764Z,101.90
